Time;durP1;ratioP1;P1;durP2;ratioP2;P2;SDS_P1;SDS_P2;PMS_P1;PMS_P2;Temp;Humidity;BMP_temperature;BMP_pressure;BME280_temperature;BME280_humidity;BME280_pressure;Samples;Min_cycle;Max_cycle;Signal;HPM_P1;HPM_P2
2022/03/03 00:01:44;;;;;;;12.30;5.45;;;;;;;7.32;98.56;100568.97;5083510;28;20062;-75
2022/03/03 00:04:09;;;;;;;13.68;5.57;;;;;;;7.31;98.44;100576.44;5064328;28;20431;-75
2022/03/03 00:06:35;;;;;;;11.93;4.95;;;;;;;7.28;98.41;100574.22;5093900;28;20028;-75
2022/03/03 00:09:01;;;;;;;9.32;4.90;;;;;;;7.29;97.93;100573.09;5046242;28;20048;-75
2022/03/03 00:11:26;;;;;;;9.73;4.90;;;;;;;7.31;97.85;100570.09;5065617;28;20028;-75
2022/03/03 00:13:52;;;;;;;9.48;5.15;;;;;;;7.29;97.96;100566.75;5081027;28;20028;-75
2022/03/03 00:16:18;;;;;;;12.50;5.30;;;;;;;7.26;98.41;100565.38;5063644;28;20024;-75
2022/03/03 00:18:43;;;;;;;7.68;4.80;;;;;;;7.28;97.95;100568.69;5077068;28;20059;-75
2022/03/03 00:21:08;;;;;;;14.27;5.32;;;;;;;7.24;99.07;100564.78;5063643;28;20039;-75
2022/03/03 00:23:34;;;;;;;11.00;4.55;;;;;;;7.25;98.62;100558.19;5071114;28;20025;-75
2022/03/03 00:26:00;;;;;;;9.52;4.80;;;;;;;7.27;99.27;100566.19;5062290;28;20388;-75
2022/03/03 00:28:25;;;;;;;7.78;4.80;;;;;;;7.27;99.36;100567.03;5060579;28;20112;-75
2022/03/03 00:30:51;;;;;;;9.55;4.47;;;;;;;7.29;99.16;100561.22;5080240;28;20030;-75
2022/03/03 00:33:16;;;;;;;13.88;5.97;;;;;;;7.30;99.84;100566.50;5046952;28;20361;-75
2022/03/03 00:35:42;;;;;;;14.27;5.70;;;;;;;7.32;100.00;100563.44;5085148;28;20024;-74
2022/03/03 00:38:08;;;;;;;8.27;4.70;;;;;;;7.34;99.43;100564.00;5085905;28;20038;-75
2022/03/03 00:40:34;;;;;;;10.93;5.03;;;;;;;7.36;99.45;100559.88;5071024;28;20035;-75
2022/03/03 00:42:59;;;;;;;11.68;5.70;;;;;;;7.38;100.00;100543.00;5080070;28;20040;-75
2022/03/03 00:45:25;;;;;;;8.75;4.75;;;;;;;7.41;99.49;100550.78;5071606;28;20043;-74
2022/03/03 00:47:50;;;;;;;12.43;5.32;;;;;;;7.45;99.80;100549.13;5084094;28;20455;-75
2022/03/03 00:50:16;;;;;;;13.75;6.13;;;;;;;7.48;100.00;100543.06;5067048;28;20078;-75
2022/03/03 00:52:41;;;;;;;12.63;6.28;;;;;;;7.53;100.00;100550.53;5048783;28;20043;-75
2022/03/03 00:55:07;;;;;;;10.13;5.85;;;;;;;7.55;100.00;100538.09;5044924;28;20385;-75
2022/03/03 00:57:33;;;;;;;12.07;6.28;;;;;;;7.58;100.00;100537.56;5073251;28;20039;-75
2022/03/03 00:59:59;;;;;;;12.10;7.05;;;;;;;7.58;100.00;100529.28;5084839;28;20028;-75
2022/03/03 01:02:25;;;;;;;14.45;7.30;;;;;;;7.61;100.00;100534.25;5076464;28;20037;-75
2022/03/03 01:04:50;;;;;;;18.23;9.02;;;;;;;7.66;100.00;100536.19;5068870;28;20150;-75
2022/03/03 01:07:16;;;;;;;14.27;7.15;;;;;;;7.69;100.00;100534.78;5082653;28;20043;-75
2022/03/03 01:09:41;;;;;;;14.90;7.28;;;;;;;7.71;100.00;100519.59;5079925;28;20048;-75
2022/03/03 01:12:07;;;;;;;15.45;6.78;;;;;;;7.73;100.00;100519.34;5065617;28;20025;-75
2022/03/03 01:14:33;;;;;;;13.00;7.15;;;;;;;7.79;100.00;100519.03;5041709;28;20061;-75
2022/03/03 01:16:58;;;;;;;18.23;8.15;;;;;;;7.80;100.00;100517.97;5061083;28;20389;-75
2022/03/03 01:19:24;;;;;;;15.63;7.60;;;;;;;7.84;100.00;100510.75;5064357;28;20396;-75
2022/03/03 01:21:49;;;;;;;13.60;8.20;;;;;;;7.86;100.00;100512.44;5056773;28;20087;-75
2022/03/03 01:24:15;;;;;;;18.63;9.40;;;;;;;7.91;100.00;100506.88;5067000;28;20033;-75
2022/03/03 01:26:40;;;;;;;19.27;9.82;;;;;;;7.92;100.00;100505.81;5084533;28;20028;-75
2022/03/03 01:29:06;;;;;;;12.05;7.28;;;;;;;7.95;100.00;100506.06;5062105;28;20055;-75
2022/03/03 01:31:31;;;;;;;14.68;8.25;;;;;;;7.97;100.00;100503.88;5049600;28;20036;-75
2022/03/03 01:33:57;;;;;;;12.98;7.28;;;;;;;8.00;100.00;100503.31;5067289;28;20037;-75
2022/03/03 01:36:22;;;;;;;16.77;8.10;;;;;;;8.02;100.00;100503.00;5098814;28;20024;-75
2022/03/03 01:38:48;;;;;;;14.05;7.70;;;;;;;8.05;100.00;100500.53;5079717;28;20041;-75
2022/03/03 01:41:13;;;;;;;13.15;7.38;;;;;;;8.08;100.00;100504.69;5044269;28;20040;-75
2022/03/03 01:43:39;;;;;;;11.88;7.78;;;;;;;8.10;100.00;100502.47;5059804;28;20067;-75
2022/03/03 01:46:05;;;;;;;13.88;7.95;;;;;;;8.12;100.00;100499.44;5056202;28;20047;-75
2022/03/03 01:48:30;;;;;;;12.20;7.60;;;;;;;8.15;100.00;100496.91;5053761;28;20575;-75
2022/03/03 01:50:56;;;;;;;15.40;8.73;;;;;;;8.16;100.00;100487.53;5088027;28;20551;-75
2022/03/03 01:53:22;;;;;;;12.10;7.55;;;;;;;8.17;100.00;100491.94;5077153;28;20037;-74
2022/03/03 01:55:47;;;;;;;11.82;6.68;;;;;;;8.19;100.00;100484.22;5082249;28;20063;-75
2022/03/03 01:58:12;;;;;;;16.25;9.48;;;;;;;8.21;100.00;100481.16;5077133;28;20484;-75
2022/03/03 02:00:38;;;;;;;14.48;8.18;;;;;;;8.22;100.00;100466.22;5063430;28;20063;-74
2022/03/03 02:03:03;;;;;;;12.80;6.90;;;;;;;8.22;100.00;100480.06;5053763;28;20047;-75
2022/03/03 02:05:30;;;;;;;11.40;7.15;;;;;;;8.26;100.00;100479.19;5073766;28;20028;-75
2022/03/03 02:07:56;;;;;;;14.38;6.80;;;;;;;8.27;100.00;100472.59;5080471;28;20052;-75
2022/03/03 02:10:21;;;;;;;16.35;7.78;;;;;;;8.27;100.00;100467.03;5095517;28;20043;-75
2022/03/03 02:12:47;;;;;;;13.88;6.38;;;;;;;8.27;100.00;100458.75;5062829;28;20530;-75
2022/03/03 02:15:17;;;;;;;11.02;6.20;;;;;;;8.28;100.00;100460.38;5078692;28;20028;-75
2022/03/03 02:17:43;;;;;;;13.65;7.32;;;;;;;8.30;100.00;100462.84;5081240;28;20028;-75
2022/03/03 02:20:18;;;;;;;12.05;6.72;;;;;;;8.28;100.00;100454.03;5080742;28;20038;-75
2022/03/03 02:22:44;;;;;;;12.68;6.95;;;;;;;8.33;100.00;100442.09;5108692;28;20081;-75
2022/03/03 02:25:10;;;;;;;13.07;7.55;;;;;;;8.34;100.00;100435.47;5096129;28;20020;-75
2022/03/03 02:27:35;;;;;;;13.18;6.47;;;;;;;8.34;100.00;100441.00;5096369;28;20035;-75
2022/03/03 02:30:01;;;;;;;12.85;5.88;;;;;;;8.33;100.00;100428.28;5076931;28;20081;-75
2022/03/03 02:32:26;;;;;;;12.63;6.50;;;;;;;8.36;100.00;100433.25;5078477;28;20383;-75
2022/03/03 02:34:51;;;;;;;13.88;5.78;;;;;;;8.34;100.00;100435.47;5078467;28;20028;-75
2022/03/03 02:37:17;;;;;;;11.70;5.90;;;;;;;8.36;100.00;100434.09;5077478;28;20479;-75
2022/03/03 02:39:43;;;;;;;10.73;5.60;;;;;;;8.38;100.00;100425.50;5061408;28;20086;-75
2022/03/03 02:42:09;;;;;;;12.50;5.85;;;;;;;8.39;100.00;100418.91;5062665;28;20031;-75
2022/03/03 02:44:35;;;;;;;11.27;5.65;;;;;;;8.41;100.00;100416.66;5045893;28;20024;-75
2022/03/03 02:47:00;;;;;;;11.50;5.30;;;;;;;8.40;100.00;100415.84;5098354;28;20028;-75
2022/03/03 02:49:26;;;;;;;11.85;5.03;;;;;;;8.39;100.00;100402.28;5061259;28;20024;-75
2022/03/03 02:51:51;;;;;;;9.27;5.28;;;;;;;8.42;100.00;100399.78;5072540;28;20036;-75
2022/03/03 02:54:17;;;;;;;8.07;4.47;;;;;;;8.39;100.00;100402.28;5097853;28;20047;-75
2022/03/03 02:59:27;;;;;;;8.73;4.63;;;;;;;8.43;100.00;100389.53;5048995;28;20111;-75
2022/03/03 03:01:52;;;;;;;9.73;5.07;;;;;;;8.43;100.00;100390.34;5044577;28;20040;-75
2022/03/03 03:04:18;;;;;;;8.90;4.90;;;;;;;8.43;100.00;100384.81;5077047;28;20024;-75
2022/03/03 03:06:43;;;;;;;7.82;4.63;;;;;;;8.46;100.00;100372.34;5054161;28;20035;-75
2022/03/03 03:09:09;;;;;;;12.07;4.60;;;;;;;8.43;100.00;100362.69;5058248;28;20409;-75
2022/03/03 03:11:34;;;;;;;9.70;4.75;;;;;;;8.44;100.00;100360.75;5060004;28;20508;-75
2022/03/03 03:13:59;;;;;;;11.75;4.93;;;;;;;8.43;100.00;100362.69;5061830;28;20040;-75
2022/03/03 03:16:25;;;;;;;7.25;4.47;;;;;;;8.45;100.00;100366.00;5074234;28;20029;-75
2022/03/03 03:18:50;;;;;;;8.30;4.82;;;;;;;8.42;100.00;100363.81;5040475;28;20029;-75
2022/03/03 03:21:16;;;;;;;8.43;4.72;;;;;;;8.41;100.00;100359.38;5077297;28;20679;-75
2022/03/03 03:23:41;;;;;;;12.20;5.63;;;;;;;8.42;100.00;100362.97;5055243;28;20044;-75
2022/03/03 03:26:07;;;;;;;9.30;5.07;;;;;;;8.42;100.00;100358.28;5077476;28;20042;-75
2022/03/03 03:28:32;;;;;;;9.98;5.05;;;;;;;8.44;100.00;100347.75;5077174;28;20033;-75
2022/03/03 03:30:58;;;;;;;9.77;5.05;;;;;;;8.47;100.00;100347.19;5077153;28;20035;-75
2022/03/03 03:33:23;;;;;;;12.10;5.90;;;;;;;8.46;100.00;100339.97;5074288;28;20029;-75
2022/03/03 03:35:49;;;;;;;10.65;5.13;;;;;;;8.46;100.00;100337.19;5044489;28;20039;-75
2022/03/03 03:38:14;;;;;;;9.00;5.22;;;;;;;8.45;100.00;100338.31;5060835;28;20404;-75
2022/03/03 03:40:40;;;;;;;11.45;4.95;;;;;;;8.44;100.00;100335.81;5079741;28;20032;-76
2022/03/03 03:43:05;;;;;;;9.18;4.90;;;;;;;8.45;100.00;100337.50;5026885;28;20039;-75
2022/03/03 03:45:33;;;;;;;11.45;5.88;;;;;;;8.45;100.00;100331.97;5047385;28;20035;-75
2022/03/03 03:47:59;;;;;;;10.25;5.75;;;;;;;8.43;100.00;100328.66;5058182;28;20473;-75
2022/03/03 03:50:25;;;;;;;9.63;5.40;;;;;;;8.44;100.00;100327.53;5069253;28;20122;-76
2022/03/03 03:52:50;;;;;;;9.15;5.47;;;;;;;8.43;100.00;100323.13;5056935;28;20107;-75
2022/03/03 03:55:16;;;;;;;9.73;5.88;;;;;;;8.44;100.00;100327.53;5071514;28;20028;-75
2022/03/03 03:57:41;;;;;;;10.73;5.25;;;;;;;8.42;100.00;100325.06;5051766;28;20079;-75
2022/03/03 04:00:09;;;;;;;11.20;5.40;;;;;;;8.43;100.00;100335.00;5078120;28;20032;-75
2022/03/03 04:02:35;;;;;;;12.90;5.00;;;;;;;8.41;100.00;100328.09;5075169;28;20077;-75
2022/03/03 04:05:00;;;;;;;9.13;5.63;;;;;;;8.44;100.00;100333.06;5074952;28;20028;-75
2022/03/03 04:07:26;;;;;;;8.70;4.43;;;;;;;8.41;100.00;100328.94;5060742;28;20029;-75
2022/03/03 04:09:51;;;;;;;9.02;4.30;;;;;;;8.42;100.00;100335.31;5058794;28;20051;-75
2022/03/03 04:12:17;;;;;;;9.77;4.80;;;;;;;8.40;100.00;100332.81;5042984;28;20032;-75
2022/03/03 04:14:42;;;;;;;8.40;4.80;;;;;;;8.43;100.00;100326.69;5057921;28;20397;-75
2022/03/03 04:17:08;;;;;;;9.20;4.75;;;;;;;8.43;100.00;100320.34;5077421;28;20024;-75
2022/03/03 04:19:33;;;;;;;8.98;4.80;;;;;;;8.42;100.00;100324.25;5064805;28;20029;-75
2022/03/03 04:21:59;;;;;;;8.10;4.60;;;;;;;8.41;100.00;100320.66;5058296;28;20035;-75
2022/03/03 04:24:24;;;;;;;8.02;5.00;;;;;;;8.37;100.00;100325.03;5102900;28;20058;-75
2022/03/03 04:26:50;;;;;;;7.95;4.55;;;;;;;8.39;100.00;100322.03;5057211;28;20207;-75
2022/03/03 04:29:15;;;;;;;8.45;5.20;;;;;;;8.36;100.00;100317.88;5059450;28;20020;-75
2022/03/03 04:31:40;;;;;;;8.43;5.00;;;;;;;8.40;100.00;100318.97;5068576;28;20037;-75
2022/03/03 04:34:06;;;;;;;9.88;4.97;;;;;;;8.37;100.00;100318.69;5073680;28;20025;-75
2022/03/03 04:36:32;;;;;;;7.75;4.88;;;;;;;8.39;100.00;100319.28;5075234;28;20032;-75
2022/03/03 04:38:57;;;;;;;9.27;6.05;;;;;;;8.38;100.00;100312.03;5077388;28;20036;-75
2022/03/03 04:41:23;;;;;;;9.35;5.80;;;;;;;8.34;100.00;100314.56;5074544;28;20035;-75
2022/03/03 04:43:48;;;;;;;9.18;6.00;;;;;;;8.34;100.00;100314.56;5073250;28;20047;-75
2022/03/03 04:46:14;;;;;;;10.18;5.32;;;;;;;8.34;100.00;100311.78;5087926;28;20036;-75
2022/03/03 04:48:40;;;;;;;15.77;6.78;;;;;;;8.34;100.00;100308.19;5075639;28;20028;-74
2022/03/03 04:51:05;;;;;;;16.02;8.45;;;;;;;8.34;100.00;100302.66;5060790;28;20446;-75
2022/03/03 04:53:31;;;;;;;12.38;5.88;;;;;;;8.38;100.00;100299.03;5064993;28;20040;-75
2022/03/03 04:55:57;;;;;;;13.05;6.80;;;;;;;8.34;100.00;100309.03;5073864;28;20107;-75
2022/03/03 04:58:23;;;;;;;11.65;6.53;;;;;;;8.34;100.00;100305.44;5080384;28;20114;-75
2022/03/03 05:00:48;;;;;;;13.23;6.65;;;;;;;8.36;100.00;100301.28;5073706;28;20037;-75
2022/03/03 05:03:14;;;;;;;13.75;7.07;;;;;;;8.36;100.00;100303.19;5038358;28;20024;-75
2022/03/03 05:05:39;;;;;;;16.58;9.05;;;;;;;8.35;100.00;100302.34;5074058;28;20449;-75
2022/03/03 05:08:05;;;;;;;15.00;8.48;;;;;;;8.36;100.00;100300.41;5080980;28;20515;-75
2022/03/03 05:10:31;;;;;;;18.13;9.27;;;;;;;8.35;100.00;100302.34;5086106;28;20032;-75
2022/03/03 05:12:57;;;;;;;19.92;10.68;;;;;;;8.36;100.00;100301.28;5065310;28;20024;-75
2022/03/03 05:15:23;;;;;;;21.45;10.60;;;;;;;8.37;100.00;100302.91;5082022;28;20024;-75
2022/03/03 05:17:48;;;;;;;19.55;10.55;;;;;;;8.37;100.00;100296.56;5079856;28;20165;-75
2022/03/03 05:20:14;;;;;;;17.88;10.27;;;;;;;8.38;100.00;100300.97;5087935;28;20086;-75
2022/03/03 05:22:40;;;;;;;18.77;10.55;;;;;;;8.38;100.00;100304.56;5104715;28;20028;-74
2022/03/03 05:25:05;;;;;;;21.65;10.57;;;;;;;8.38;100.00;100306.50;5082422;28;20028;-75
2022/03/03 05:27:33;;;;;;;19.85;10.60;;;;;;;8.38;100.00;100303.72;5067815;28;20043;-75
2022/03/03 05:29:59;;;;;;;18.80;10.70;;;;;;;8.38;100.00;100309.28;5082495;28;20057;-74
2022/03/03 05:32:24;;;;;;;22.85;12.95;;;;;;;8.40;100.00;100312.63;5081771;28;20028;-75
2022/03/03 05:34:50;;;;;;;22.13;11.77;;;;;;;8.38;100.00;100314.81;5080976;28;20028;-75
2022/03/03 05:37:20;;;;;;;19.25;10.77;;;;;;;8.44;100.00;100316.47;5099599;28;20023;-75
2022/03/03 05:39:46;;;;;;;19.67;11.13;;;;;;;8.42;100.00;100304.88;5067994;28;20515;-75
2022/03/03 05:42:12;;;;;;;25.95;11.27;;;;;;;8.43;100.00;100306.50;5083001;28;20036;-75
2022/03/03 05:44:37;;;;;;;22.40;11.63;;;;;;;8.45;100.00;100309.81;5061277;28;20029;-75
2022/03/03 05:47:03;;;;;;;23.90;12.52;;;;;;;8.45;100.00;100307.06;5063794;28;20033;-75
2022/03/03 05:49:29;;;;;;;20.33;11.18;;;;;;;8.43;100.00;100304.56;5083012;28;20039;-75
2022/03/03 05:51:54;;;;;;;16.38;10.32;;;;;;;8.44;100.00;100311.78;5073415;28;20027;-75
2022/03/03 05:54:20;;;;;;;17.58;10.27;;;;;;;8.45;100.00;100304.28;5081446;28;20028;-75
2022/03/03 05:56:46;;;;;;;21.50;11.32;;;;;;;8.42;100.00;100302.09;5080030;28;20028;-75
2022/03/03 05:59:13;;;;;;;20.13;10.27;;;;;;;8.44;100.00;100302.63;5051808;28;20562;-75
2022/03/03 06:01:39;;;;;;;18.92;10.43;;;;;;;8.46;100.00;100300.41;5105989;27;20034;-75
2022/03/03 06:04:04;;;;;;;19.23;9.95;;;;;;;8.44;100.00;100297.94;5063933;28;20028;-75
2022/03/03 06:06:31;;;;;;;19.13;9.63;;;;;;;8.44;100.00;100302.63;5061617;28;20365;-75
2022/03/03 06:09:04;;;;;;;16.48;10.32;;;;;;;8.44;100.00;100297.09;5061559;28;20040;-75
2022/03/03 06:11:29;;;;;;;18.13;9.90;;;;;;;8.45;100.00;100287.69;5064117;28;20032;-75
2022/03/03 06:14:07;;;;;;;18.85;10.38;;;;;;;8.46;100.00;100287.38;5079888;28;20036;-75
2022/03/03 06:16:34;;;;;;;18.60;9.18;;;;;;;8.46;100.00;100283.78;5076644;28;20028;-75
2022/03/03 06:18:59;;;;;;;20.35;9.93;;;;;;;8.45;100.00;100287.69;5024496;28;20087;-75
2022/03/03 06:21:25;;;;;;;17.05;9.20;;;;;;;8.44;100.00;100281.34;5074618;28;20065;-75
2022/03/03 06:23:51;;;;;;;17.73;8.93;;;;;;;8.45;100.00;100280.22;5058376;28;20047;-75
2022/03/03 06:26:17;;;;;;;18.63;9.60;;;;;;;8.45;100.00;100277.44;5057558;28;20489;-75
2022/03/03 06:28:43;;;;;;;17.70;8.90;;;;;;;8.47;100.00;100285.47;5078711;28;20025;-75
2022/03/03 06:31:09;;;;;;;15.88;8.68;;;;;;;8.46;100.00;100281.84;5059043;28;20093;-75
2022/03/03 06:33:35;;;;;;;16.65;9.40;;;;;;;8.45;100.00;100282.97;5038746;28;20028;-75
2022/03/03 06:36:00;;;;;;;16.23;8.60;;;;;;;8.42;100.00;100275.25;5062653;28;20463;-75
2022/03/03 06:38:26;;;;;;;16.52;8.63;;;;;;;8.46;100.00;100276.31;5066407;28;20041;-76
2022/03/03 06:40:53;;;;;;;18.05;8.35;;;;;;;8.45;100.00;100284.91;5045333;28;20028;-76
2022/03/03 06:43:19;;;;;;;21.05;9.07;;;;;;;8.46;100.00;100279.09;5057421;28;20020;-76
2022/03/03 06:45:45;;;;;;;18.45;9.60;;;;;;;8.46;100.00;100273.53;5079124;28;20043;-76
2022/03/03 06:48:10;;;;;;;17.48;9.30;;;;;;;8.47;100.00;100275.22;5059632;28;20028;-76
2022/03/03 06:50:36;;;;;;;20.52;9.88;;;;;;;8.48;100.00;100273.28;5078250;28;20451;-76
2022/03/03 06:53:03;;;;;;;17.92;9.10;;;;;;;8.48;100.00;100271.34;5075745;28;20103;-76
2022/03/03 06:55:30;;;;;;;16.00;9.20;;;;;;;8.48;100.00;100264.97;5074653;28;20477;-76
2022/03/03 06:57:56;;;;;;;14.50;8.75;;;;;;;8.49;100.00;100272.16;5079255;28;20113;-76
2022/03/03 07:00:24;;;;;;;14.88;8.73;;;;;;;8.48;100.00;100270.50;5075435;28;20033;-76
2022/03/03 07:02:50;;;;;;;17.52;8.60;;;;;;;8.50;100.00;100276.59;5077098;28;20032;-76
2022/03/03 07:05:16;;;;;;;15.25;7.97;;;;;;;8.48;100.00;100274.09;5067095;28;20028;-76
2022/03/03 07:07:42;;;;;;;11.85;7.90;;;;;;;8.50;100.00;100273.81;5061802;28;20093;-76
2022/03/03 07:10:09;;;;;;;16.50;9.18;;;;;;;8.50;100.00;100282.94;5045390;28;20040;-76
2022/03/03 07:12:34;;;;;;;13.75;7.63;;;;;;;8.53;100.00;100276.03;5060571;28;20651;-75
2022/03/03 07:15:00;;;;;;;14.45;8.18;;;;;;;8.53;100.00;100277.97;5078149;28;20051;-75
2022/03/03 07:17:43;;;;;;;13.48;7.78;;;;;;;8.51;100.00;100281.00;5048210;28;20448;-76
2022/03/03 07:20:10;;;;;;;12.63;7.10;;;;;;;8.54;100.00;100285.16;5046685;28;20112;-76
2022/03/03 07:23:00;;;;;;;13.25;7.18;;;;;;;8.52;100.00;100287.38;5066612;28;20424;-76
2022/03/03 07:25:32;;;;;;;13.18;8.38;;;;;;;8.51;100.00;100289.31;5080910;28;20105;-77
2022/03/03 07:27:57;;;;;;;15.20;7.93;;;;;;;8.52;100.00;100288.19;5045819;28;20557;-77
2022/03/03 07:30:23;;;;;;;17.40;8.38;;;;;;;8.53;100.00;100278.78;5048983;28;20027;-70
2022/03/03 07:32:54;;;;;;;14.75;8.55;;;;;;;8.53;100.00;100275.19;5078324;28;20451;-72
2022/03/03 07:35:20;;;;;;;13.55;8.73;;;;;;;8.57;100.00;100277.09;5062119;28;20032;-72
2022/03/03 07:37:53;;;;;;;12.10;7.10;;;;;;;8.55;100.00;100273.78;5057940;28;20025;-71
2022/03/03 07:40:19;;;;;;;13.48;7.75;;;;;;;8.58;100.00;100278.75;5076227;28;20032;-72
2022/03/03 07:42:45;;;;;;;14.40;7.78;;;;;;;8.61;100.00;100272.66;5057745;28;20063;-72
2022/03/03 07:45:10;;;;;;;13.82;7.80;;;;;;;8.60;100.00;100272.91;5056655;28;20488;-72
2022/03/03 07:47:36;;;;;;;14.13;7.47;;;;;;;8.63;100.00;100278.69;5046435;28;20039;-72
2022/03/03 07:50:02;;;;;;;15.23;7.90;;;;;;;8.64;100.00;100279.56;5036238;28;20034;-72
2022/03/03 07:52:28;;;;;;;13.45;7.40;;;;;;;8.67;100.00;100276.22;5061945;28;20033;-72
2022/03/03 07:54:54;;;;;;;11.35;7.05;;;;;;;8.68;100.00;100275.09;5065951;28;20028;-72
2022/03/03 07:57:21;;;;;;;12.88;7.03;;;;;;;8.68;100.00;100281.44;5051256;28;20042;-71
2022/03/03 07:59:56;;;;;;;13.45;7.75;;;;;;;8.71;100.00;100272.56;5043854;28;20032;-72
2022/03/03 08:02:22;;;;;;;13.38;7.32;;;;;;;8.75;100.00;100275.59;5052990;28;20044;-71
2022/03/03 08:04:50;;;;;;;13.98;7.13;;;;;;;8.77;100.00;100276.13;5057431;28;20028;-71
2022/03/03 08:07:15;;;;;;;14.10;8.00;;;;;;;8.79;100.00;100276.66;5059935;28;20074;-71
2022/03/03 08:09:41;;;;;;;13.55;7.38;;;;;;;8.80;100.00;100274.72;5015830;28;20052;-71
2022/03/03 08:12:07;;;;;;;8.60;6.20;;;;;;;8.84;100.00;100282.16;5040485;28;20036;-71
2022/03/03 08:14:33;;;;;;;11.73;7.13;;;;;;;8.84;100.00;100282.16;5026367;28;20031;-71
2022/03/03 08:16:59;;;;;;;12.15;7.40;;;;;;;8.88;100.00;100277.69;5037409;28;20025;-71
2022/03/03 08:19:24;;;;;;;12.95;6.55;;;;;;;8.90;100.00;100281.00;5024191;28;20508;-75
2022/03/03 08:21:50;;;;;;;12.40;6.50;;;;;;;8.94;100.00;100292.34;5028365;28;20653;-75
2022/03/03 08:24:16;;;;;;;12.00;6.35;;;;;;;8.96;100.00;100281.81;5075620;28;20043;-76
2022/03/03 08:26:42;;;;;;;15.10;6.85;;;;;;;8.97;100.00;100286.25;5058044;28;20041;-76
2022/03/03 08:29:08;;;;;;;15.43;7.60;;;;;;;9.02;100.00;100286.19;5070385;28;20100;-76
2022/03/03 08:31:46;;;;;;;14.52;7.32;;;;;;;9.06;100.00;100286.44;5044238;28;20032;-75
2022/03/03 08:34:35;;;;;;;10.93;6.15;;;;;;;9.10;100.00;100287.50;5045231;28;20032;-76
2022/03/03 08:37:03;;;;;;;14.23;6.78;;;;;;;9.13;100.00;100293.28;5074847;28;20076;-75
2022/03/03 08:39:29;;;;;;;13.90;6.47;;;;;;;9.15;100.00;100290.25;5056574;28;20028;-76
2022/03/03 08:41:59;;;;;;;12.98;6.60;;;;;;;9.17;100.00;100288.84;5044322;28;20074;-75
2022/03/03 08:44:33;;;;;;;13.32;6.22;;;;;;;9.21;100.00;100302.09;5053684;28;20033;-76
2022/03/03 08:46:59;;;;;;;12.30;5.20;;;;;;;9.23;100.00;100297.13;5070097;28;20047;-76
2022/03/03 08:49:30;;;;;;;12.25;5.82;;;;;;;9.25;100.00;100295.72;5059241;28;20029;-76
2022/03/03 08:51:56;;;;;;;12.30;5.65;;;;;;;9.28;100.00;100300.66;5054775;28;20032;-76
2022/03/03 08:54:21;;;;;;;13.48;6.18;;;;;;;9.29;100.00;100293.16;5056393;28;20035;-76
2022/03/03 08:56:47;;;;;;;13.13;6.47;;;;;;;9.32;100.00;100289.81;5062516;28;20029;-76
2022/03/03 08:59:13;;;;;;;11.88;5.78;;;;;;;9.35;100.00;100300.31;5061001;28;20450;-76
2022/03/03 09:01:39;;;;;;;11.23;6.10;;;;;;;9.38;100.00;100294.19;5044270;28;20036;-75
2022/03/03 09:04:06;;;;;;;14.85;6.72;;;;;;;9.43;100.00;100301.63;5028010;28;20119;-76
2022/03/03 09:06:32;;;;;;;13.88;6.90;;;;;;;9.46;100.00;100290.78;5062613;28;20088;-75
2022/03/03 09:08:58;;;;;;;11.05;6.90;;;;;;;9.49;100.00;100300.47;5063386;28;20473;-76
2022/03/03 09:11:24;;;;;;;12.30;6.82;;;;;;;9.54;100.00;100298.47;5078047;28;20024;-75
2022/03/03 09:13:50;;;;;;;14.77;7.05;;;;;;;9.58;100.00;100284.84;5029946;28;20100;-75
2022/03/03 09:16:17;;;;;;;11.75;7.30;;;;;;;9.63;100.00;100293.94;5079923;28;20052;-75
2022/03/03 09:18:44;;;;;;;14.23;7.35;;;;;;;9.68;100.00;100297.78;5061453;28;20063;-76
2022/03/03 09:21:09;;;;;;;10.35;6.38;;;;;;;9.73;100.00;100294.97;5081453;28;20088;-76
2022/03/03 09:23:35;;;;;;;13.63;7.18;;;;;;;9.79;100.00;100296.56;5065515;28;20362;-75
2022/03/03 09:26:01;;;;;;;12.07;6.97;;;;;;;9.83;100.00;100294.84;5079472;28;20041;-75
2022/03/03 09:28:26;;;;;;;13.00;6.63;;;;;;;9.88;100.00;100296.75;5085300;28;20036;-75
2022/03/03 09:30:52;;;;;;;13.25;6.03;;;;;;;9.95;100.00;100297.22;5059779;28;20497;-76
2022/03/03 09:33:18;;;;;;;12.38;6.53;;;;;;;9.99;100.00;100296.31;5099063;27;20504;-75
2022/03/03 09:35:43;;;;;;;12.73;6.45;;;;;;;10.05;100.00;100297.09;5097183;28;20533;-76
2022/03/03 09:38:09;;;;;;;12.32;6.13;;;;;;;10.09;100.00;100294.56;5058442;28;20370;-76
2022/03/03 09:40:34;;;;;;;10.45;6.00;;;;;;;10.15;100.00;100296.16;5064877;28;20098;-76
2022/03/03 09:43:04;;;;;;;12.27;6.10;;;;;;;10.18;100.00;100295.56;5077334;28;20074;-75
2022/03/03 09:45:30;;;;;;;12.30;6.25;;;;;;;10.20;100.00;100299.69;5064632;28;20029;-75
2022/03/03 09:47:57;;;;;;;10.32;5.72;;;;;;;10.24;100.00;100299.91;5078015;28;20051;-75
2022/03/03 09:50:24;;;;;;;9.57;6.10;;;;;;;10.27;100.00;100304.91;5054468;28;20025;-76
2022/03/03 09:52:50;;;;;;;9.15;5.90;;;;;;;10.27;100.00;100300.16;5067076;28;20112;-76
2022/03/03 09:55:15;;;;;;;10.40;6.05;;;;;;;10.33;100.00;100303.69;5060889;28;20477;-76
2022/03/03 09:57:41;;;;;;;11.68;6.25;;;;;;;10.34;100.00;100302.59;5062311;28;20040;-76
2022/03/03 10:00:08;;;;;;;10.48;5.75;;;;;;;10.37;100.00;100304.78;5077125;28;20028;-76
2022/03/03 10:02:53;;;;;;;11.25;6.30;;;;;;;10.39;100.00;100290.59;5076151;28;20028;-76
2022/03/03 10:05:35;;;;;;;9.50;5.78;;;;;;;10.40;100.00;100293.06;5076730;28;20103;-76
2022/03/03 10:08:10;;;;;;;10.93;6.03;;;;;;;10.42;100.00;100296.38;5102225;27;20045;-76
2022/03/03 10:10:38;;;;;;;13.55;6.28;;;;;;;10.45;100.00;100287.47;5077876;28;20431;-76
2022/03/03 10:13:04;;;;;;;10.82;6.68;;;;;;;10.47;100.00;100296.31;5065700;28;20075;-76
2022/03/03 10:15:30;;;;;;;9.32;6.18;;;;;;;10.49;100.00;100294.03;5079787;28;20025;-76
2022/03/03 10:18:00;;;;;;;10.25;5.78;;;;;;;10.50;100.00;100292.94;5059152;28;20524;-76
2022/03/03 10:20:26;;;;;;;14.00;6.45;;;;;;;10.53;100.00;100294.28;5077395;28;20028;-75
2022/03/03 10:22:57;;;;;;;9.98;5.75;;;;;;;10.56;100.00;100296.47;5053342;28;20033;-76
2022/03/03 10:25:31;;;;;;;11.75;6.10;;;;;;;10.58;100.00;100305.31;5071342;28;20029;-76
2022/03/03 10:27:59;;;;;;;8.77;5.50;;;;;;;10.60;100.00;100297.50;5076480;28;20028;-76
2022/03/03 10:30:25;;;;;;;11.05;5.50;;;;;;;10.63;100.00;100304.41;5077526;28;20035;-76
2022/03/03 10:32:50;;;;;;;12.18;6.43;;;;;;;10.64;100.00;100297.72;5079156;28;20032;-75
2022/03/03 10:35:18;;;;;;;11.98;6.28;;;;;;;10.64;100.00;100300.50;5080022;28;20039;-76
2022/03/03 10:37:44;;;;;;;10.63;5.78;;;;;;;10.66;100.00;100306.59;5075880;28;20032;-75
2022/03/03 10:40:12;;;;;;;12.07;6.00;;;;;;;10.70;100.00;100296.56;5071998;28;20056;-75
2022/03/03 10:42:37;;;;;;;11.48;6.13;;;;;;;10.68;100.00;100294.06;5057780;28;20032;-76
2022/03/03 10:45:08;;;;;;;12.13;5.45;;;;;;;10.69;100.00;100298.47;5067201;28;20028;-75
2022/03/03 10:47:33;;;;;;;8.63;5.43;;;;;;;10.70;100.00;100302.94;5092822;28;20029;-75
2022/03/03 10:50:02;;;;;;;9.23;5.22;;;;;;;10.71;100.00;100309.31;5079514;28;20039;-75
2022/03/03 10:52:29;;;;;;;12.75;6.38;;;;;;;10.71;100.00;100298.19;5042264;28;20511;-76
2022/03/03 10:55:06;;;;;;;9.25;5.63;;;;;;;10.72;100.00;100297.06;5059938;28;20065;-76
2022/03/03 10:57:40;;;;;;;10.82;6.30;;;;;;;10.68;100.00;100298.78;5078153;28;20039;-76
2022/03/03 11:00:23;;;;;;;9.43;5.95;;;;;;;10.71;100.00;100299.00;5063130;28;20047;-76
2022/03/03 11:02:50;;;;;;;9.10;5.40;;;;;;;10.70;100.00;100300.16;5079425;28;20024;-76
2022/03/03 11:05:16;;;;;;;11.82;6.15;;;;;;;10.71;100.00;100309.31;5075444;28;20031;-75
2022/03/03 11:07:43;;;;;;;14.70;6.13;;;;;;;10.71;100.00;100303.75;5058041;28;20036;-76
2022/03/03 11:10:10;;;;;;;10.77;6.13;;;;;;;10.72;100.00;100310.94;5091771;28;20547;-75
2022/03/03 11:12:36;;;;;;;10.02;5.38;;;;;;;10.72;100.00;100305.38;5096679;28;20032;-76
2022/03/03 11:15:03;;;;;;;9.95;6.65;;;;;;;10.73;100.00;100310.66;5044780;28;20035;-76
2022/03/03 11:17:28;;;;;;;12.50;6.57;;;;;;;10.75;100.00;100304.78;5082716;28;20477;-76